Time;durP1;ratioP1;P1;durP2;ratioP2;P2;SDS_P1;SDS_P2;PMS_P1;PMS_P2;Temp;Humidity;BMP_temperature;BMP_pressure;BME280_temperature;BME280_humidity;BME280_pressure;Samples;Min_cycle;Max_cycle;Signal;HPM_P1;HPM_P2
2022/04/21 00:02:54;;;;;;;14.27;8.47;;;9.50;99.90;;;;;;10593730;28;20220;-78
2022/04/21 00:08:17;;;;;;;13.47;8.00;;;9.40;99.90;;;;;;10579013;28;20192;-77
2022/04/21 00:13:38;;;;;;;16.13;8.63;;;9.40;99.90;;;;;;10592608;28;20197;-78
2022/04/21 00:19:00;;;;;;;13.30;7.70;;;9.40;99.90;;;;;;10599720;27;20197;-78
2022/04/21 00:24:21;;;;;;;15.70;7.97;;;9.40;99.90;;;;;;10606534;27;20407;-78
2022/04/21 00:29:45;;;;;;;16.97;7.77;;;9.30;99.90;;;;;;10592145;28;20197;-77
2022/04/21 00:35:11;;;;;;;14.90;8.30;;;9.30;99.90;;;;;;10606424;28;20360;-77
2022/04/21 00:40:33;;;;;;;13.90;7.67;;;9.30;99.90;;;;;;10591902;28;20249;-78
2022/04/21 00:45:56;;;;;;;11.57;7.60;;;9.30;99.90;;;;;;10590616;28;20458;-78
2022/04/21 00:51:17;;;;;;;16.23;8.50;;;9.30;99.90;;;;;;10606113;28;20190;-78
2022/04/21 00:56:40;;;;;;;12.83;7.17;;;9.30;99.90;;;;;;10606532;28;20202;-77
2022/04/21 01:07:43;;;;;;;13.40;7.73;;;9.20;99.90;;;;;;10604328;28;20211;-78
2022/04/21 01:13:07;;;;;;;17.67;8.00;;;9.20;99.90;;;;;;10605613;28;20224;-78
2022/04/21 01:18:28;;;;;;;16.13;8.20;;;9.30;99.90;;;;;;10585055;28;20192;-78
2022/04/21 01:23:50;;;;;;;11.97;7.03;;;9.40;99.90;;;;;;10605401;28;20248;-79
2022/04/21 01:29:12;;;;;;;18.60;7.17;;;9.30;99.90;;;;;;10604157;28;20377;-78
2022/04/21 01:34:33;;;;;;;13.83;7.30;;;9.30;99.90;;;;;;10604555;28;20236;-79
2022/04/21 01:45:35;;;;;;;14.13;7.63;;;9.30;99.90;;;;;;10589454;28;20236;-78
2022/04/21 01:50:57;;;;;;;12.83;7.53;;;9.40;99.90;;;;;;10604460;28;20271;-79
2022/04/21 01:56:18;;;;;;;12.30;7.43;;;9.40;99.90;;;;;;10603252;28;20201;-79
2022/04/21 02:01:40;;;;;;;11.53;7.03;;;9.40;99.90;;;;;;10588946;28;20503;-78
2022/04/21 02:07:03;;;;;;;12.90;6.27;;;9.50;99.90;;;;;;10604035;28;20269;-79
2022/04/21 02:12:28;;;;;;;10.83;6.43;;;9.50;99.90;;;;;;10588226;28;20262;-79
2022/04/21 02:17:50;;;;;;;13.00;6.20;;;9.60;99.90;;;;;;10602562;28;20196;-78
2022/04/21 02:23:11;;;;;;;13.07;6.03;;;9.60;99.90;;;;;;10591658;28;20245;-78
2022/04/21 02:28:32;;;;;;;10.53;6.40;;;9.60;99.90;;;;;;10588180;28;20200;-79
2022/04/21 02:33:54;;;;;;;11.80;6.27;;;9.60;99.90;;;;;;10602800;28;20190;-78
2022/04/21 02:39:15;;;;;;;7.60;6.00;;;9.60;99.90;;;;;;10602104;28;20195;-78
2022/04/21 02:44:38;;;;;;;9.53;6.40;;;9.60;99.90;;;;;;10601874;28;20221;-79
2022/04/21 02:50:00;;;;;;;9.97;6.20;;;9.50;99.90;;;;;;10587817;28;20431;-78
2022/04/21 03:01:01;;;;;;;10.00;5.87;;;9.50;99.90;;;;;;10587337;28;20220;-79
2022/04/21 03:06:22;;;;;;;14.27;6.70;;;9.50;99.90;;;;;;10601660;28;20221;-78
2022/04/21 03:11:43;;;;;;;12.73;6.17;;;9.50;99.90;;;;;;10602014;28;20219;-79
2022/04/21 03:17:07;;;;;;;10.73;6.63;;;9.50;99.90;;;;;;10601258;28;20198;-79
2022/04/21 03:28:08;;;;;;;11.50;6.03;;;9.60;99.90;;;;;;10572146;28;20368;-79
2022/04/21 03:33:29;;;;;;;10.33;5.97;;;9.70;99.90;;;;;;10594473;28;20205;-78
2022/04/21 03:38:51;;;;;;;7.67;5.13;;;9.70;99.90;;;;;;10568986;28;20233;-78
2022/04/21 03:44:12;;;;;;;11.37;5.40;;;9.70;99.90;;;;;;10582471;27;20538;-79
2022/04/21 03:49:34;;;;;;;8.53;5.10;;;9.70;99.90;;;;;;10651464;27;20479;-79
2022/04/21 03:54:55;;;;;;;8.20;5.50;;;9.70;99.90;;;;;;10607969;28;20328;-79
2022/04/21 04:00:17;;;;;;;7.90;4.93;;;9.70;99.90;;;;;;10607981;28;20201;-77
2022/04/21 04:05:38;;;;;;;10.83;5.37;;;9.80;99.90;;;;;;10608393;28;20515;-78
2022/04/21 04:11:01;;;;;;;11.23;5.57;;;9.80;99.90;;;;;;10607235;28;20192;-78
2022/04/21 04:16:22;;;;;;;16.77;9.17;;;9.80;99.90;;;;;;10606702;28;20197;-79
2022/04/21 04:21:43;;;;;;;16.17;9.50;;;9.90;99.90;;;;;;10606638;28;20460;-78
2022/04/21 04:27:05;;;;;;;12.13;8.17;;;9.80;99.90;;;;;;10592325;28;20221;-79
2022/04/21 04:32:26;;;;;;;18.03;9.90;;;9.80;99.90;;;;;;10607880;28;20188;-79
2022/04/21 04:37:47;;;;;;;14.70;9.50;;;9.80;99.90;;;;;;10591710;28;20197;-79
2022/04/21 04:43:09;;;;;;;16.93;9.40;;;9.90;99.90;;;;;;10577235;28;20228;-79
2022/04/21 04:48:30;;;;;;;15.27;9.23;;;10.00;99.90;;;;;;10606959;28;20272;-79
2022/04/21 04:53:53;;;;;;;13.70;8.80;;;10.10;99.90;;;;;;10591521;28;20401;-79
2022/04/21 04:59:15;;;;;;;20.03;10.43;;;10.20;99.90;;;;;;10605411;28;20220;-79
2022/04/21 05:04:36;;;;;;;21.17;12.80;;;10.20;99.90;;;;;;10605096;28;20233;-78
2022/04/21 05:09:58;;;;;;;18.77;11.77;;;10.30;99.90;;;;;;10605187;28;20208;-79
2022/04/21 05:15:19;;;;;;;15.20;9.70;;;10.30;99.90;;;;;;10604278;28;20196;-79
2022/04/21 05:20:40;;;;;;;26.03;13.87;;;10.40;99.90;;;;;;10605352;28;20451;-79
2022/04/21 05:26:02;;;;;;;32.33;19.33;;;10.50;99.90;;;;;;10605238;28;20234;-79
2022/04/21 05:31:26;;;;;;;34.80;21.45;;;10.70;99.90;;;;;;10604194;28;20196;-79
2022/04/21 05:36:48;;;;;;;21.97;13.77;;;11.00;99.90;;;;;;10603835;28;20254;-79
2022/04/21 05:42:15;;;;;;;17.20;10.48;;;11.20;99.90;;;;;;10603655;28;20368;-79
2022/04/21 05:47:38;;;;;;;13.20;8.70;;;11.40;99.90;;;;;;10588307;28;20565;-78
2022/04/21 05:53:03;;;;;;;46.97;25.63;;;11.50;99.90;;;;;;10603092;28;20193;-79
2022/04/21 05:58:25;;;;;;;78.38;40.65;;;11.50;99.90;;;;;;10588702;28;20476;-78
2022/04/21 06:03:47;;;;;;;61.78;36.47;;;11.60;99.90;;;;;;10603037;28;20520;-79
2022/04/21 06:09:08;;;;;;;44.72;24.02;;;11.80;99.90;;;;;;10602541;28;20203;-79
2022/04/21 06:14:30;;;;;;;18.27;8.18;;;12.20;99.90;;;;;;10602658;28;20192;-80
2022/04/21 06:19:51;;;;;;;11.80;6.90;;;12.70;99.90;;;;;;10588450;28;20514;-80
2022/04/21 06:25:13;;;;;;;24.33;10.68;;;13.30;99.90;;;;;;10602137;28;20318;-80
2022/04/21 06:30:34;;;;;;;8.35;5.82;;;13.20;99.90;;;;;;10587649;28;20209;-80
2022/04/21 06:35:56;;;;;;;8.43;4.45;;;13.20;99.90;;;;;;10602461;28;20197;-78
2022/04/21 06:41:18;;;;;;;12.93;8.57;;;13.60;99.90;;;;;;10587748;28;20200;-79
2022/04/21 08:32:46;;;;;;;6.72;3.15;;;22.10;33.50;;;;;;10619425;27;20213;-79
2022/04/21 08:38:09;;;;;;;15.48;7.88;;;22.10;30.00;;;;;;10656633;27;20189;-78
2022/04/21 08:43:35;;;;;;;6.32;3.97;;;22.20;27.90;;;;;;10652532;27;20217;-80
2022/04/21 08:49:00;;;;;;;8.95;5.03;;;22.60;26.70;;;;;;10634575;27;20347;-80
2022/04/21 08:54:30;;;;;;;23.08;13.45;;;22.50;25.60;;;;;;10633037;27;20196;-79
2022/04/21 08:59:52;;;;;;;22.80;9.82;;;22.60;24.30;;;;;;10620060;27;20205;-81
2022/04/21 09:05:14;;;;;;;12.25;6.60;;;23.20;23.10;;;;;;10626510;27;20244;-81
2022/04/21 09:10:35;;;;;;;3.45;2.42;;;23.10;22.20;;;;;;10632977;27;20188;-78
2022/04/21 09:16:02;;;;;;;5.18;2.60;;;21.90;21.60;;;;;;10633703;27;20199;-80
2022/04/21 09:21:36;;;;;;;6.85;4.50;;;21.10;22.80;;;;;;10623196;27;20209;-81
2022/04/21 09:26:58;;;;;;;16.70;7.20;;;20.50;23.90;;;;;;10629727;27;20679;-78
2022/04/21 09:32:19;;;;;;;7.40;3.97;;;20.10;24.40;;;;;;10632277;27;20193;-82
2022/04/21 09:37:52;;;;;;;10.70;4.60;;;19.70;25.70;;;;;;10634164;27;20188;-79
2022/04/21 09:43:13;;;;;;;6.32;3.60;;;20.20;24.30;;;;;;10597524;27;20241;-85
2022/04/21 09:48:35;;;;;;;7.35;3.63;;;20.70;23.10;;;;;;10604211;28;20197;-85
2022/04/21 09:54:02;;;;;;;8.55;4.03;;;20.80;23.50;;;;;;10588853;28;20235;-80
2022/04/21 09:59:24;;;;;;;7.10;3.22;;;21.60;21.30;;;;;;10587615;28;20200;-80
2022/04/21 10:04:47;;;;;;;5.97;2.70;;;22.30;19.10;;;;;;10584818;28;20244;-80
2022/04/21 10:10:10;;;;;;;4.00;1.52;;;22.70;15.10;;;;;;10602157;28;20297;-83
2022/04/21 10:15:32;;;;;;;3.38;2.10;;;23.20;11.60;;;;;;10600065;27;20194;-85
2022/04/21 10:20:57;;;;;;;4.28;2.17;;;23.70;9.40;;;;;;10585391;28;20201;-82
2022/04/21 10:26:40;;;;;;;3.53;1.70;;;;;;;;;;10601128;28;20237;-85
2022/04/21 10:32:03;;;;;;;8.57;1.92;;;24.00;8.00;;;;;;10598953;27;20190;-84
2022/04/21 10:37:32;;;;;;;7.90;3.50;;;24.10;12.40;;;;;;10607086;27;20590;-80
2022/04/21 10:42:55;;;;;;;10.95;1.70;;;24.60;11.60;;;;;;10598576;28;20591;-88
2022/04/21 10:48:16;;;;;;;2.50;1.88;;;24.80;8.00;;;;;;10603819;28;20190;-82
2022/04/21 11:00:03;;;;;;;11.57;5.20;;;25.00;8.10;;;;;;10602304;28;20210;-84
2022/04/21 11:05:39;;;;;;;25.23;12.20;;;25.40;6.50;;;;;;10563648;28;20281;-83
2022/04/21 11:11:00;;;;;;;9.82;3.95;;;;;;;;;;10588404;28;20178;-81
2022/04/21 11:16:47;;;;;;;11.98;4.80;;;25.70;5.60;;;;;;10588270;28;20277;-85
2022/04/21 11:22:10;;;;;;;5.72;4.07;;;25.70;6.20;;;;;;10587190;28;20198;-80
2022/04/21 11:27:34;;;;;;;6.10;2.50;;;25.60;6.10;;;;;;10605334;28;20496;-80
2022/04/21 11:32:56;;;;;;;2.92;1.92;;;25.50;6.20;;;;;;10601549;28;20270;-81
2022/04/21 11:38:17;;;;;;;5.38;2.53;;;25.20;5.30;;;;;;10564692;28;20472;-86
2022/04/21 11:43:49;;;;;;;4.22;2.10;;;25.10;4.60;;;;;;10561371;28;20221;-81
2022/04/21 11:49:10;;;;;;;5.60;2.50;;;24.90;4.90;;;;;;10598627;28;20381;-83
2022/04/21 11:54:32;;;;;;;3.17;2.13;;;24.80;4.90;;;;;;10582095;28;20185;-79
2022/04/21 12:00:01;;;;;;;5.55;2.10;;;24.70;5.30;;;;;;10598482;28;20197;-81
2022/04/21 12:11:10;;;;;;;4.97;2.28;;;24.40;5.60;;;;;;10599211;28;20189;-85
2022/04/21 12:16:36;;;;;;;2.20;1.40;;;24.60;5.30;;;;;;10589099;28;20194;-81
2022/04/21 12:22:03;;;;;;;4.70;2.20;;;24.80;5.10;;;;;;10585303;28;20190;-84
2022/04/21 12:27:36;;;;;;;3.03;2.03;;;24.50;5.00;;;;;;10583103;28;20298;-84
2022/04/21 12:33:02;;;;;;;2.33;1.83;;;24.30;4.90;;;;;;10582463;28;20201;-82
2022/04/21 12:44:05;;;;;;;2.38;1.60;;;23.80;5.70;;;;;;10593072;28;20245;-83
2022/04/21 12:49:57;;;;;;;1.98;1.48;;;23.40;6.00;;;;;;10580957;28;20201;-85
2022/04/21 12:55:21;;;;;;;2.50;1.80;;;23.20;6.30;;;;;;10582334;28;20205;-85
2022/04/21 13:00:46;;;;;;;5.20;2.00;;;23.10;6.80;;;;;;10585107;28;20227;-80
2022/04/21 13:06:07;;;;;;;2.67;1.70;;;22.50;7.40;;;;;;10596393;28;20224;-80
2022/04/21 13:11:29;;;;;;;5.35;2.35;;;21.90;8.30;;;;;;10600100;28;20704;-81
2022/04/21 13:16:50;;;;;;;2.67;1.92;;;21.50;8.60;;;;;;10603257;28;20192;-81
2022/04/21 13:22:12;;;;;;;2.35;1.73;;;21.10;9.00;;;;;;10604299;28;20243;-84
2022/04/21 13:27:34;;;;;;;15.02;6.85;;;20.90;9.10;;;;;;10604542;27;20240;-82
2022/04/21 13:38:35;;;;;;;7.57;1.98;;;20.80;9.90;;;;;;10594516;27;20197;-81
2022/04/21 13:43:56;;;;;;;5.03;2.50;;;20.40;10.20;;;;;;10587316;28;20292;-81
2022/04/21 13:49:38;;;;;;;8.13;2.47;;;20.20;10.90;;;;;;10591175;28;20200;-81
2022/04/21 13:54:59;;;;;;;5.10;2.47;;;19.80;11.30;;;;;;10587165;28;20214;-81
2022/04/21 14:00:24;;;;;;;3.40;1.98;;;19.60;11.90;;;;;;10589596;28;20497;-84
2022/04/21 14:05:46;;;;;;;5.85;2.38;;;19.50;11.70;;;;;;10603166;28;20229;-81
2022/04/21 14:11:07;;;;;;;1.52;1.42;;;19.20;12.30;;;;;;10600935;28;20201;-81
2022/04/21 14:16:30;;;;;;;5.55;2.00;;;19.10;12.30;;;;;;10589016;28;20508;-81
2022/04/21 14:21:53;;;;;;;10.40;4.50;;;18.80;13.40;;;;;;10601502;28;20197;-80
2022/04/21 14:27:14;;;;;;;9.05;4.78;;;18.60;13.40;;;;;;10600709;28;20232;-80
2022/04/21 14:32:36;;;;;;;9.55;2.03;;;18.40;13.80;;;;;;10571453;28;20209;-80
2022/04/21 14:49:18;;;;;;;6.38;3.95;;;18.10;14.50;;;;;;10601487;28;20223;-80
2022/04/21 14:54:39;;;;;;;4.20;2.15;;;18.00;14.80;;;;;;10599057;28;20348;-80
2022/04/21 15:00:04;;;;;;;4.47;1.88;;;17.80;15.30;;;;;;10583860;28;20227;-81
2022/04/21 15:05:26;;;;;;;4.97;2.10;;;17.60;15.30;;;;;;10602102;28;20425;-80
2022/04/21 15:10:48;;;;;;;7.70;2.40;;;17.40;15.40;;;;;;10602043;27;20193;-79
2022/04/21 15:16:10;;;;;;;4.22;1.70;;;17.40;16.20;;;;;;10601107;27;20519;-80
2022/04/21 15:21:36;;;;;;;4.47;2.17;;;17.20;16.10;;;;;;10587832;28;20222;-80
2022/04/21 15:26:57;;;;;;;7.13;2.03;;;17.10;16.70;;;;;;10603152;28;20577;-81
2022/04/21 15:32:18;;;;;;;3.47;1.67;;;17.00;16.90;;;;;;10604112;28;20185;-80
2022/04/21 15:37:41;;;;;;;6.57;2.20;;;16.90;17.20;;;;;;10601999;28;20186;-80
2022/04/21 15:43:06;;;;;;;3.25;2.47;;;16.70;18.00;;;;;;10602264;28;20502;-80
2022/04/21 15:48:27;;;;;;;4.53;2.05;;;16.60;18.20;;;;;;10603890;28;20193;-80
2022/04/21 15:59:29;;;;;;;9.30;2.53;;;16.60;19.20;;;;;;10595601;28;20189;-79
2022/04/21 16:04:51;;;;;;;7.65;1.88;;;16.50;19.60;;;;;;10580736;28;20783;-80
2022/04/21 16:10:12;;;;;;;2.72;1.63;;;16.40;19.70;;;;;;10605417;28;20199;-79
2022/04/21 16:15:34;;;;;;;4.30;2.10;;;16.30;20.00;;;;;;10612828;28;20199;-79
2022/04/21 16:20:56;;;;;;;4.68;2.13;;;16.30;20.40;;;;;;10592663;28;20217;-80
2022/04/21 16:26:18;;;;;;;5.15;2.08;;;16.20;20.20;;;;;;10591673;28;20239;-79
2022/04/21 16:31:41;;;;;;;10.07;5.75;;;15.90;20.50;;;;;;10593645;28;20214;-79
2022/04/21 16:37:02;;;;;;;12.60;5.03;;;15.80;20.90;;;;;;10607986;28;20198;-79
2022/04/21 16:42:24;;;;;;;9.50;5.22;;;15.80;20.90;;;;;;10608472;28;20449;-80
2022/04/21 16:47:45;;;;;;;28.13;12.20;;;15.80;21.20;;;;;;10613317;28;20446;-79
2022/04/21 16:53:07;;;;;;;54.22;20.00;;;15.70;21.50;;;;;;10619196;28;20333;-78
2022/04/21 16:58:29;;;;;;;42.85;19.27;;;15.70;22.00;;;;;;10613978;28;20195;-78
2022/04/21 17:03:50;;;;;;;37.83;19.02;;;15.50;22.30;;;;;;10619692;28;20230;-78
2022/04/21 17:09:12;;;;;;;20.05;10.82;;;15.40;22.80;;;;;;10622419;28;20212;-78
2022/04/21 17:14:36;;;;;;;9.85;5.50;;;15.40;23.40;;;;;;10619871;28;20203;-78
2022/04/21 17:19:58;;;;;;;9.23;4.18;;;15.20;23.70;;;;;;10617793;28;20235;-78
2022/04/21 17:25:19;;;;;;;11.10;5.13;;;15.10;24.10;;;;;;10647203;27;20228;-79
2022/04/21 17:30:42;;;;;;;8.23;4.40;;;15.00;24.50;;;;;;10619388;27;20193;-78
2022/04/21 17:36:03;;;;;;;8.10;3.80;;;14.90;25.10;;;;;;10601026;28;20219;-79
2022/04/21 17:41:27;;;;;;;7.75;4.05;;;14.80;25.50;;;;;;10602540;28;20204;-79
2022/04/21 17:46:48;;;;;;;8.10;4.60;;;14.70;26.00;;;;;;10617556;28;20265;-78
2022/04/21 17:52:10;;;;;;;5.53;4.00;;;14.50;27.10;;;;;;10615156;28;20483;-79
2022/04/21 17:57:32;;;;;;;8.48;5.80;;;14.40;28.00;;;;;;10612201;28;20413;-78
2022/04/21 18:02:53;;;;;;;8.93;4.97;;;14.30;28.80;;;;;;10607703;28;20230;-78
2022/04/21 18:08:15;;;;;;;12.95;5.60;;;14.20;30.10;;;;;;10608468;28;20226;-78
2022/04/21 18:13:44;;;;;;;8.73;4.97;;;14.10;31.60;;;;;;10606985;28;20195;-78
2022/04/21 18:19:06;;;;;;;8.38;4.57;;;14.00;33.30;;;;;;10606776;28;20228;-78
2022/04/21 18:24:27;;;;;;;10.68;6.47;;;13.90;35.60;;;;;;10607089;28;20480;-79
2022/04/21 18:29:49;;;;;;;23.27;12.80;;;13.90;37.00;;;;;;10592106;28;20196;-79
2022/04/21 18:35:10;;;;;;;28.85;18.38;;;14.00;39.20;;;;;;10591690;28;20224;-78
2022/04/21 18:40:32;;;;;;;26.50;14.43;;;13.90;40.40;;;;;;10591611;28;20216;-78
2022/04/21 18:45:53;;;;;;;34.83;17.20;;;13.60;43.60;;;;;;10602168;28;20235;-78
2022/04/21 18:51:15;;;;;;;45.10;18.05;;;13.60;46.30;;;;;;10605305;28;20184;-78
2022/04/21 18:56:37;;;;;;;27.80;15.02;;;13.40;49.20;;;;;;10605206;28;20205;-78
2022/04/21 19:01:58;;;;;;;24.52;14.82;;;13.30;52.30;;;;;;10605486;28;20204;-78
2022/04/21 19:07:19;;;;;;;45.75;24.52;;;13.20;56.10;;;;;;10602577;28;20267;-78
2022/04/21 19:12:43;;;;;;;51.75;25.42;;;13.20;57.90;;;;;;10605332;28;20183;-78
2022/04/21 19:18:04;;;;;;;23.17;13.40;;;;;;;;;;10590418;28;20267;-78
2022/04/21 19:23:26;;;;;;;20.77;10.57;;;;;;;;;;10604781;28;20216;-78
2022/04/21 19:28:47;;;;;;;13.93;9.02;;;12.70;97.70;;;;;;10547251;28;20209;-78
2022/04/21 19:34:10;;;;;;;14.50;8.38;;;;;;;;;;10546919;28;20218;-78
2022/04/21 19:39:31;;;;;;;11.20;6.13;;;12.20;81.60;;;;;;10570259;28;20202;-78
2022/04/21 19:44:54;;;;;;;11.63;6.55;;;;;;;;;;10603027;28;20296;-78
2022/04/21 19:50:19;;;;;;;9.10;5.95;;;;;;;;;;10602823;28;20512;-78
2022/04/21 19:55:40;;;;;;;9.48;5.78;;;12.30;95.40;;;;;;10603350;28;20481;-78
2022/04/21 20:01:04;;;;;;;22.05;14.20;;;12.30;96.60;;;;;;10604054;28;20192;-78
2022/04/21 20:12:25;;;;;;;23.95;14.77;;;12.40;97.00;;;;;;10587894;28;20195;-78
2022/04/21 20:17:46;;;;;;;23.50;14.27;;;12.30;97.80;;;;;;10588306;28;20190;-78
2022/04/21 20:23:07;;;;;;;17.58;8.73;;;12.30;98.10;;;;;;10602801;28;20227;-78
2022/04/21 20:28:29;;;;;;;14.93;8.98;;;12.30;98.20;;;;;;10603091;28;20453;-78
2022/04/21 20:33:50;;;;;;;16.52;8.20;;;12.40;98.40;;;;;;10602037;28;20187;-78
2022/04/21 20:39:13;;;;;;;12.68;6.25;;;12.40;98.80;;;;;;10602558;28;20216;-78
2022/04/21 20:44:34;;;;;;;9.63;5.30;;;12.50;99.20;;;;;;10586145;28;20301;-78
2022/04/21 20:49:56;;;;;;;8.15;4.53;;;12.50;99.90;;;;;;10602171;28;20423;-78
2022/04/21 20:55:17;;;;;;;8.48;4.32;;;12.50;99.90;;;;;;10601587;28;20198;-78
2022/04/21 21:00:38;;;;;;;7.32;4.13;;;12.60;99.90;;;;;;10587339;28;20196;-77
2022/04/21 21:06:00;;;;;;;9.75;4.40;;;12.50;99.90;;;;;;10586952;28;20300;-78
2022/04/21 21:11:21;;;;;;;8.10;4.20;;;12.50;99.90;;;;;;10602518;28;20252;-78
2022/04/21 21:16:43;;;;;;;9.70;4.75;;;12.50;99.90;;;;;;10601170;28;20202;-78
2022/04/21 21:22:06;;;;;;;8.98;5.13;;;12.50;99.90;;;;;;10586702;28;20256;-78
2022/04/21 21:27:28;;;;;;;8.75;5.05;;;12.60;99.90;;;;;;10629429;27;20298;-78
2022/04/21 21:32:56;;;;;;;8.25;4.18;;;12.60;99.90;;;;;;10649040;27;20194;-77
2022/04/21 21:38:17;;;;;;;8.77;4.00;;;12.60;99.90;;;;;;10651083;27;20249;-78
2022/04/21 21:43:39;;;;;;;9.95;4.78;;;12.70;99.90;;;;;;10590467;28;20197;-78
2022/04/21 21:54:40;;;;;;;10.48;4.60;;;12.60;99.90;;;;;;10607875;28;20505;-78
2022/04/21 22:00:01;;;;;;;10.18;4.65;;;12.60;99.90;;;;;;10607664;28;20229;-78
2022/04/21 22:05:32;;;;;;;9.90;4.53;;;12.50;99.90;;;;;;10608370;28;20222;-78
2022/04/21 22:10:53;;;;;;;10.55;4.63;;;12.60;99.90;;;;;;10606816;28;20194;-78
2022/04/21 22:16:15;;;;;;;9.65;4.20;;;12.60;99.90;;;;;;10608043;28;20220;-78
2022/04/21 22:21:36;;;;;;;9.75;4.25;;;12.50;99.90;;;;;;10607897;28;20251;-78
2022/04/21 22:26:58;;;;;;;6.75;4.20;;;12.50;99.90;;;;;;10606081;28;20247;-78
2022/04/21 22:32:19;;;;;;;14.50;4.80;;;12.40;99.90;;;;;;10606572;28;20197;-78
2022/04/21 22:37:41;;;;;;;6.32;4.00;;;12.40;99.90;;;;;;10591484;28;20204;-78
2022/04/21 22:43:04;;;;;;;7.10;3.45;;;12.40;99.90;;;;;;10606430;28;20209;-78
2022/04/21 22:48:26;;;;;;;6.13;3.35;;;12.40;99.90;;;;;;10591472;28;20455;-78
2022/04/21 22:53:47;;;;;;;5.55;3.67;;;12.30;99.90;;;;;;10605762;28;20188;-78
2022/04/21 22:59:08;;;;;;;5.85;3.28;;;12.40;99.90;;;;;;10605359;28;20490;-78
2022/04/21 23:04:30;;;;;;;5.57;3.28;;;12.40;99.90;;;;;;10604849;28;20211;-78
2022/04/21 23:15:31;;;;;;;4.65;3.38;;;12.40;99.90;;;;;;10563378;28;20503;-78
2022/04/21 23:20:53;;;;;;;5.68;3.65;;;12.40;99.90;;;;;;10547685;28;20197;-78
2022/04/21 23:26:14;;;;;;;5.03;3.08;;;12.30;99.90;;;;;;10602260;28;20237;-78
2022/04/21 23:31:36;;;;;;;6.03;3.40;;;12.20;99.90;;;;;;10604128;28;20383;-78
2022/04/21 23:36:58;;;;;;;7.13;3.83;;;12.10;99.90;;;;;;10603559;28;20419;-79
2022/04/21 23:42:19;;;;;;;5.63;3.38;;;12.10;99.90;;;;;;10597714;27;20272;-78
2022/04/21 23:47:41;;;;;;;8.63;3.80;;;12.10;99.90;;;;;;10604394;28;20235;-78
2022/04/21 23:53:03;;;;;;;5.97;3.57;;;12.00;99.90;;;;;;10602775;28;20440;-78
2022/04/21 23:58:25;;;;;;;8.93;4.70;;;12.00;99.90;;;;;;10588747;28;20293;-78
